Eaton, New Hampshire
Current Conditions -  °F | °C
As of 10:54 AM on Saturday 25 Oct 2014 (Local Time) from KIZG Reporting Station
Clear Clear  
Wind Chill: 57°   Ceiling: Unl
Heat Index: 57°   Visibility: 10mi
Dew Point: 40°   Wind: 0mph
Humidity: 53%   Direction: NA
Pressure: 29.67"   Gusts: NA
Location:  43.9094°N, 71.0845°W
Report Text: KIZG 251454Z AUTO 00000KT 10SM CLR 14/04 A2967 RMK AO2 SLP048 T01390044 58010
Loading
Personal Weather Stations






























Interactive Weather Map
Tropical Storm Tracking
New forecast layout! Learn more

10-Day Weather Forecast

Advertisements
Track Severe Weather on mobile